< < Back
Terminal Aerodrome Forecast


Current Version              Previous Versions:   1  2  3  4  5  6  7  8  9  

Terminal Aerodrome Forecast

686
FTUS42 KCAE 282200 AAB
TAFAGS
TAF AMD
KAGS 282200Z 2822/2918 02007KT P6SM VCSH SCT030 BKN045
     FM290000 04006KT P6SM SCT035 OVC050
     FM290400 03005KT 4SM -SHRA BR BKN035 OVC045
     FM291500 35009G15KT P6SM SCT025 OVC040=



Latest METAR

565
SAUS70 KWBC 290300 RRD
MTRAGS
METAR KAGS 290253Z 10007KT 9SM -RA BKN100 OVC120 20/19 A3010 RMK AO2
RAB27 SLP189 P0002 60002 T02000189 50004


USA.gov is the U.S. government's official web portal to all federal, state and local government web resources and services.